San Diego State University, California
Current Conditions -  °F | °C
As of 9:56 AM on Saturday 25 Oct 2014 (Local Time) from KNRS Reporting Station
Broken Clouds Broken Clouds  
Wind Chill: 72°   Ceiling: 10000
Heat Index: 72°   Visibility: 10mi
Dew Point: 66°   Wind: 6mph
Humidity: 81%   Direction: 230°SW
Pressure: 30.07"   Gusts: NA
Location:  32.6353°N, 117.099°W
Report Text: KNRS 251656Z AUTO 23005KT 10SM FEW011 BKN100 22/19 A3007 RMK AO2 SLP182 T02220189 $
Loading
Personal Weather Stations






























Interactive Weather Map
Tropical Storm Tracking
New forecast layout! Learn more

10-Day Weather Forecast

Advertisements
Track Severe Weather on mobile